Lewistown, MT

1:54 AM MDT on September 26, 2016 (GMT -0600)
3/4 mile S of Lewistown | | Change Station

Elev 4189 ft 47.04 °N, 109.42 °W | Updated 0 second ago

Partly Cloudy
Partly Cloudy
47.6 °F
Feels Like 48 °F
N
0.0
Wind Variable Wind from South
Gusts 0.0 mph

Today
High -- | Low -- °F
--% Chance of Precip.
Yesterday
High -- | Low -- °F
Precip. -- in
Pressure 30.32 in
Visibility 10.0 miles
Clouds Few 6000 ft
Windchill 48 °F
Dew Point 42 °F
Humidity 80%
Rainfall 0.00 in
Snow Depth Not available.
7:10 AM 7:06 PM
Waning Crescent, 21% visible
METAR KLWT 260654Z AUTO 25006KT 10SM FEW060 08/05 A3034 RMK AO2 SLP267 T00780050 401720011 $
Pressure 30.32 in
Visibility 10.0 miles
Clouds Few 6000 ft
Windchill 48 °F
Dew Point 42 °F
Humidity 80%
Rainfall 0.00 in
Snow Depth Not available.
7:10 AM 7:06 PM
Waning Crescent, 21% visible
METAR KLWT 260654Z AUTO 25006KT 10SM FEW060 08/05 A3034 RMK AO2 SLP267 T00780050 401720011 $

10-Day Weather Forecast

Almanac

Astronomy

Sep. 26, 2016 Rise Set
Actual Time
Civil Twilight
Nautical Twilight
Astronomical Twilight
Moon
Length of Visible Light
Length of Day
Tomorrow will be .
, % of the Moon is Illuminated

Today's Extremes

State Highs State Lows

Community

WunderPhotos

Upload Photos

1,941,853 photos uploaded!

WunderBlog® & News

Nearby

Air Quality

  Air Quality AQ Index Pollutant
Not available.

Snow Depth

Station Depth Elevation

Earthquake Activity

City Distance Mag. Time & Date
Minimum magnitude displayed is 2.5.

Coastal Water Temperatures

Place Temperature

Stations

Nearby Weather Stations

Station Location Temp. Windchill Dew Point Humidity Wind Precip. Elev Updated Type
                   

Watches & Warnings

There are currently no watches in effect.